QTR1150 OTHH-OEDF
Flight info
| Callsign | QTR1150 |
|---|---|
| Flight time | 0h 29m |
| Altitude | 16000 |
| Route | TULUB B457 NARMI |
| Aircraft | B77W/H-SDE1E2E3FGHIJ2J3J4J5M1RWXY/LB1D1 |
Departure
| Time | 2026-05-04 18:15 |
|---|---|
| Airport | Hamad International Airport (OTHH) |
Arrival
| Time | 2026-05-04 18:45 |
|---|---|
| Airport | King Fahd International Airport (OEDF) |
| Time | Latitude | Longitude | Altitude | Speed | Heading |
|---|---|---|---|---|---|
| 2026-05-04 16:52 | 25.25887 | 51.59734 | 35 ft | 0 kts | 248° |
| 2026-05-04 18:00 | 25.25892 | 51.59747 | 35 ft | 3 kts | 248° |
| 2026-05-04 18:00 | 25.25899 | 51.59768 | 35 ft | 3 kts | 248° |
| 2026-05-04 18:00 | 25.25907 | 51.59788 | 32 ft | 3 kts | 248° |
| 2026-05-04 18:00 | 25.25914 | 51.59809 | 33 ft | 3 kts | 244° |
| 2026-05-04 18:01 | 25.25924 | 51.59824 | 33 ft | 3 kts | 200° |
| 2026-05-04 18:01 | 25.25940 | 51.59825 | 32 ft | 2 kts | 160° |
| 2026-05-04 18:01 | 25.25950 | 51.59821 | 33 ft | 3 kts | 158° |
| 2026-05-04 18:02 | 25.25975 | 51.59810 | 32 ft | 0 kts | 158° |
| 2026-05-04 18:08 | 25.25974 | 51.59810 | 32 ft | 2 kts | 158° |
| 2026-05-04 18:08 | 25.25923 | 51.59833 | 32 ft | 10 kts | 158° |
| 2026-05-04 18:08 | 25.25856 | 51.59862 | 35 ft | 11 kts | 158° |
| 2026-05-04 18:08 | 25.25787 | 51.59893 | 35 ft | 11 kts | 158° |
| 2026-05-04 18:09 | 25.25682 | 51.59959 | 35 ft | 6 kts | 104° |
| 2026-05-04 18:09 | 25.25703 | 51.60027 | 35 ft | 0 kts | 66° |
| 2026-05-04 18:10 | 25.25706 | 51.60036 | 35 ft | 4 kts | 66° |
| 2026-05-04 18:10 | 25.25719 | 51.60083 | 35 ft | 9 kts | 81° |
| 2026-05-04 18:10 | 25.25714 | 51.60168 | 35 ft | 12 kts | 96° |
| 2026-05-04 18:10 | 25.25678 | 51.60248 | 34 ft | 12 kts | 145° |
| 2026-05-04 18:11 | 25.25600 | 51.60290 | 34 ft | 13 kts | 157° |
| 2026-05-04 18:11 | 25.25542 | 51.60326 | 33 ft | 8 kts | 125° |
| 2026-05-04 18:11 | 25.25543 | 51.60371 | 33 ft | 0 kts | 75° |
| 2026-05-04 18:11 | 25.25544 | 51.60371 | 33 ft | 0 kts | 75° |
| 2026-05-04 18:12 | 25.25546 | 51.60380 | 32 ft | 2 kts | 74° |
| 2026-05-04 18:13 | 25.25554 | 51.60408 | 32 ft | 5 kts | 67° |
| 2026-05-04 18:13 | 25.25579 | 51.60452 | 30 ft | 8 kts | 55° |
| 2026-05-04 18:13 | 25.25644 | 51.60493 | 30 ft | 3 kts | 340° |
| 2026-05-04 18:14 | 25.25645 | 51.60493 | 30 ft | 3 kts | 340° |
| 2026-05-04 18:15 | 25.26753 | 51.60006 | 31 ft | 157 kts | 338° |
| 2026-05-04 18:15 | 25.29013 | 51.59021 | 1261 ft | 174 kts | 339° |
| 2026-05-04 18:15 | 25.30157 | 51.58508 | 1906 ft | 183 kts | 338° |
| 2026-05-04 18:16 | 25.30979 | 51.58145 | 2204 ft | 196 kts | 339° |
| 2026-05-04 18:16 | 25.32324 | 51.57556 | 2569 ft | 219 kts | 339° |
| 2026-05-04 18:16 | 25.33808 | 51.56879 | 2978 ft | 242 kts | 338° |
| 2026-05-04 18:17 | 25.37065 | 51.55433 | 4484 ft | 255 kts | 339° |
| 2026-05-04 18:17 | 25.38719 | 51.54708 | 5387 ft | 256 kts | 339° |
| 2026-05-04 18:17 | 25.42064 | 51.53228 | 7075 ft | 263 kts | 338° |
| 2026-05-04 18:18 | 25.43776 | 51.52469 | 7883 ft | 267 kts | 338° |
| 2026-05-04 18:18 | 25.45488 | 51.51710 | 8682 ft | 270 kts | 337° |
| 2026-05-04 18:18 | 25.47246 | 51.50938 | 9512 ft | 272 kts | 340° |
| 2026-05-04 18:18 | 25.49146 | 51.50646 | 10080 ft | 285 kts | 3° |
| 2026-05-04 18:19 | 25.53295 | 51.51848 | 10673 ft | 336 kts | 14° |
| 2026-05-04 18:19 | 25.55612 | 51.52640 | 11009 ft | 357 kts | 14° |
| 2026-05-04 18:19 | 25.58031 | 51.53459 | 11675 ft | 369 kts | 14° |
| 2026-05-04 18:20 | 25.60521 | 51.54285 | 12534 ft | 376 kts | 14° |
| 2026-05-04 18:20 | 25.63045 | 51.55113 | 13449 ft | 381 kts | 14° |
| 2026-05-04 18:20 | 25.65641 | 51.55640 | 14064 ft | 383 kts | 358° |
| 2026-05-04 18:20 | 25.68258 | 51.55133 | 14812 ft | 381 kts | 340° |
| 2026-05-04 18:21 | 25.70772 | 51.54179 | 15339 ft | 393 kts | 339° |
| 2026-05-04 18:21 | 25.73378 | 51.53205 | 15561 ft | 395 kts | 340° |
| 2026-05-04 18:21 | 25.75991 | 51.52252 | 15692 ft | 395 kts | 340° |
| 2026-05-04 18:21 | 25.78606 | 51.51313 | 15739 ft | 394 kts | 340° |
| 2026-05-04 18:22 | 25.81214 | 51.50381 | 15777 ft | 394 kts | 340° |
| 2026-05-04 18:22 | 25.83754 | 51.49299 | 15778 ft | 390 kts | 329° |
| 2026-05-04 18:22 | 25.85876 | 51.47429 | 15790 ft | 391 kts | 310° |
| 2026-05-04 18:22 | 25.87527 | 51.45054 | 15805 ft | 390 kts | 306° |
| 2026-05-04 18:23 | 25.89168 | 51.42632 | 15799 ft | 392 kts | 306° |
| 2026-05-04 18:23 | 25.90813 | 51.40243 | 15778 ft | 388 kts | 306° |
| 2026-05-04 18:23 | 25.92451 | 51.37888 | 15781 ft | 384 kts | 306° |
| 2026-05-04 18:23 | 25.94094 | 51.35539 | 15791 ft | 385 kts | 307° |
| 2026-05-04 18:24 | 25.95740 | 51.33186 | 15790 ft | 386 kts | 307° |
| 2026-05-04 18:24 | 25.97357 | 51.30850 | 15781 ft | 385 kts | 304° |
| 2026-05-04 18:24 | 25.98760 | 51.28317 | 15791 ft | 385 kts | 297° |
| 2026-05-04 18:24 | 25.99975 | 51.25668 | 15794 ft | 385 kts | 295° |
| 2026-05-04 18:25 | 26.01149 | 51.22982 | 15792 ft | 386 kts | 295° |
| 2026-05-04 18:25 | 26.02334 | 51.20293 | 15790 ft | 387 kts | 296° |
| 2026-05-04 18:25 | 26.03540 | 51.17617 | 15796 ft | 387 kts | 296° |
| 2026-05-04 18:25 | 26.04766 | 51.14945 | 15786 ft | 387 kts | 296° |
| 2026-05-04 18:26 | 26.05997 | 51.12288 | 15785 ft | 387 kts | 296° |
| 2026-05-04 18:26 | 26.07233 | 51.09632 | 15787 ft | 386 kts | 296° |
| 2026-05-04 18:26 | 26.08466 | 51.06984 | 15787 ft | 385 kts | 296° |
| 2026-05-04 18:26 | 26.09696 | 51.04340 | 15787 ft | 384 kts | 296° |
| 2026-05-04 18:27 | 26.10922 | 51.01703 | 15789 ft | 384 kts | 296° |
| 2026-05-04 18:27 | 26.12112 | 50.99045 | 15787 ft | 383 kts | 294° |
| 2026-05-04 18:27 | 26.13217 | 50.96353 | 15792 ft | 383 kts | 294° |
| 2026-05-04 18:27 | 26.14319 | 50.93651 | 15798 ft | 383 kts | 294° |
| 2026-05-04 18:28 | 26.15430 | 50.90952 | 15793 ft | 383 kts | 294° |
| 2026-05-04 18:28 | 26.16534 | 50.88257 | 15794 ft | 383 kts | 294° |
| 2026-05-04 18:28 | 26.17639 | 50.85546 | 15798 ft | 383 kts | 294° |
| 2026-05-04 18:28 | 26.18741 | 50.82841 | 15799 ft | 384 kts | 294° |
| 2026-05-04 18:29 | 26.19829 | 50.80170 | 15799 ft | 384 kts | 294° |
| 2026-05-04 18:29 | 26.20934 | 50.77459 | 15800 ft | 384 kts | 294° |
| 2026-05-04 18:29 | 26.22040 | 50.74744 | 15802 ft | 385 kts | 294° |
| 2026-05-04 18:29 | 26.23141 | 50.72041 | 15707 ft | 382 kts | 294° |
| 2026-05-04 18:30 | 26.25241 | 50.66661 | 14937 ft | 376 kts | 289° |
| 2026-05-04 18:30 | 26.25977 | 50.63870 | 14433 ft | 376 kts | 284° |
| 2026-05-04 18:30 | 26.26444 | 50.61000 | 13943 ft | 376 kts | 279° |
| 2026-05-04 18:31 | 26.26811 | 50.58127 | 13519 ft | 374 kts | 279° |
| 2026-05-04 18:31 | 26.27173 | 50.55272 | 13077 ft | 370 kts | 279° |
| 2026-05-04 18:31 | 26.27531 | 50.52468 | 12549 ft | 359 kts | 279° |
| 2026-05-04 18:31 | 26.27884 | 50.49743 | 11946 ft | 352 kts | 279° |
| 2026-05-04 18:32 | 26.28234 | 50.47055 | 11187 ft | 348 kts | 280° |
| 2026-05-04 18:32 | 26.28582 | 50.44397 | 10326 ft | 345 kts | 280° |
| 2026-05-04 18:32 | 26.28933 | 50.41727 | 9764 ft | 347 kts | 280° |
| 2026-05-04 18:32 | 26.29276 | 50.39112 | 9679 ft | 332 kts | 280° |
| 2026-05-04 18:33 | 26.29597 | 50.36643 | 9615 ft | 310 kts | 280° |
| 2026-05-04 18:33 | 26.29890 | 50.34385 | 9549 ft | 290 kts | 280° |
| 2026-05-04 18:33 | 26.30133 | 50.32195 | 9422 ft | 281 kts | 275° |
| 2026-05-04 18:33 | 26.30103 | 50.30038 | 9177 ft | 277 kts | 269° |
| 2026-05-04 18:34 | 26.29972 | 50.27891 | 8828 ft | 277 kts | 269° |
| 2026-05-04 18:34 | 26.29832 | 50.25740 | 8459 ft | 278 kts | 269° |
| 2026-05-04 18:34 | 26.29701 | 50.23595 | 8112 ft | 277 kts | 269° |
| 2026-05-04 18:34 | 26.29580 | 50.21448 | 7777 ft | 274 kts | 269° |
| 2026-05-04 18:35 | 26.29469 | 50.19374 | 7279 ft | 271 kts | 269° |
| 2026-05-04 18:35 | 26.29362 | 50.17304 | 6876 ft | 264 kts | 269° |
| 2026-05-04 18:35 | 26.29261 | 50.15292 | 6524 ft | 256 kts | 269° |
| 2026-05-04 18:35 | 26.29165 | 50.13338 | 6165 ft | 251 kts | 269° |
| 2026-05-04 18:36 | 26.29070 | 50.11402 | 5920 ft | 247 kts | 269° |
| 2026-05-04 18:36 | 26.28977 | 50.09508 | 5714 ft | 242 kts | 269° |
| 2026-05-04 18:36 | 26.28886 | 50.07664 | 5547 ft | 234 kts | 269° |
| 2026-05-04 18:36 | 26.28797 | 50.05897 | 5449 ft | 223 kts | 269° |
| 2026-05-04 18:37 | 26.28703 | 50.04183 | 5185 ft | 221 kts | 268° |
| 2026-05-04 18:37 | 26.28576 | 50.02493 | 4958 ft | 217 kts | 268° |
| 2026-05-04 18:37 | 26.28440 | 50.00833 | 4742 ft | 213 kts | 268° |
| 2026-05-04 18:37 | 26.28309 | 49.99203 | 4545 ft | 207 kts | 268° |
| 2026-05-04 18:38 | 26.28182 | 49.97642 | 4370 ft | 199 kts | 268° |
| 2026-05-04 18:38 | 26.28066 | 49.96101 | 4221 ft | 201 kts | 268° |
| 2026-05-04 18:38 | 26.27949 | 49.94532 | 4111 ft | 203 kts | 267° |
| 2026-05-04 18:38 | 26.27824 | 49.92954 | 3977 ft | 205 kts | 267° |
| 2026-05-04 18:39 | 26.27704 | 49.91431 | 3805 ft | 196 kts | 267° |
| 2026-05-04 18:39 | 26.27591 | 49.89951 | 3579 ft | 186 kts | 268° |
| 2026-05-04 18:39 | 26.27485 | 49.88544 | 3408 ft | 181 kts | 268° |
| 2026-05-04 18:39 | 26.27488 | 49.87156 | 3306 ft | 178 kts | 283° |
| 2026-05-04 18:40 | 26.27876 | 49.85856 | 3233 ft | 176 kts | 301° |
| 2026-05-04 18:40 | 26.28604 | 49.84776 | 3170 ft | 174 kts | 321° |
| 2026-05-04 18:40 | 26.29625 | 49.84076 | 3036 ft | 171 kts | 341° |
| 2026-05-04 18:40 | 26.30742 | 49.83710 | 2837 ft | 165 kts | 348° |
| 2026-05-04 18:41 | 26.31861 | 49.83395 | 2702 ft | 168 kts | 347° |
| 2026-05-04 18:41 | 26.32991 | 49.83051 | 2451 ft | 164 kts | 346° |
| 2026-05-04 18:41 | 26.34046 | 49.82711 | 2242 ft | 152 kts | 347° |
| 2026-05-04 18:41 | 26.35054 | 49.82400 | 2011 ft | 149 kts | 348° |
| 2026-05-04 18:42 | 26.36060 | 49.82092 | 1832 ft | 151 kts | 348° |
| 2026-05-04 18:42 | 26.37067 | 49.81776 | 1657 ft | 150 kts | 348° |
| 2026-05-04 18:42 | 26.38064 | 49.81469 | 1454 ft | 150 kts | 348° |
| 2026-05-04 18:42 | 26.39069 | 49.81163 | 1252 ft | 149 kts | 348° |
| 2026-05-04 18:43 | 26.40065 | 49.80856 | 1099 ft | 149 kts | 347° |
| 2026-05-04 18:43 | 26.41076 | 49.80538 | 911 ft | 151 kts | 347° |
| 2026-05-04 18:43 | 26.42090 | 49.80229 | 745 ft | 151 kts | 346° |
| 2026-05-04 18:43 | 26.43102 | 49.79917 | 558 ft | 150 kts | 345° |
| 2026-05-04 18:44 | 26.44099 | 49.79601 | 368 ft | 148 kts | 345° |
| 2026-05-04 18:44 | 26.44760 | 49.79398 | 255 ft | 149 kts | 346° |
| 2026-05-04 18:44 | 26.46084 | 49.78994 | 93 ft | 137 kts | 343° |
| 2026-05-04 18:44 | 26.46839 | 49.78762 | 94 ft | 86 kts | 345° |
| 2026-05-04 18:45 | 26.47238 | 49.78638 | 95 ft | 34 kts | 344° |
| 2026-05-04 18:45 | 26.47310 | 49.78616 | 95 ft | 0 kts | 344° |
| 2026-05-04 18:45 | 26.47340 | 49.78607 | 97 ft | 9 kts | 344° |
| 2026-05-04 18:45 | 26.47413 | 49.78584 | 94 ft | 13 kts | 344° |
| 2026-05-04 18:46 | 26.47511 | 49.78559 | 95 ft | 17 kts | 351° |
| 2026-05-04 18:46 | 26.47635 | 49.78557 | 97 ft | 18 kts | 7° |
| 2026-05-04 18:46 | 26.47747 | 49.78582 | 93 ft | 14 kts | 13° |
| 2026-05-04 18:46 | 26.47843 | 49.78610 | 93 ft | 14 kts | 14° |
| 2026-05-04 18:47 | 26.47937 | 49.78641 | 93 ft | 13 kts | 22° |
| 2026-05-04 18:47 | 26.47975 | 49.78683 | 94 ft | 7 kts | 70° |
| 2026-05-04 18:47 | 26.47959 | 49.78732 | 92 ft | 7 kts | 141° |
| 2026-05-04 18:47 | 26.47903 | 49.78758 | 95 ft | 13 kts | 163° |
| 2026-05-04 18:48 | 26.47812 | 49.78787 | 94 ft | 14 kts | 165° |
| 2026-05-04 18:48 | 26.47720 | 49.78814 | 93 ft | 14 kts | 165° |
| 2026-05-04 18:48 | 26.47628 | 49.78843 | 94 ft | 14 kts | 164° |
| 2026-05-04 18:48 | 26.47536 | 49.78871 | 93 ft | 14 kts | 164° |
| 2026-05-04 18:49 | 26.47444 | 49.78899 | 95 ft | 14 kts | 164° |
| 2026-05-04 18:49 | 26.47353 | 49.78928 | 95 ft | 14 kts | 164° |
| 2026-05-04 18:49 | 26.47254 | 49.78959 | 94 ft | 15 kts | 164° |
| 2026-05-04 18:49 | 26.47153 | 49.78991 | 92 ft | 15 kts | 164° |
| 2026-05-04 18:50 | 26.47052 | 49.79022 | 95 ft | 15 kts | 165° |
| 2026-05-04 18:50 | 26.46986 | 49.79053 | 93 ft | 8 kts | 125° |
| 2026-05-04 18:50 | 26.46985 | 49.79117 | 93 ft | 9 kts | 79° |
| 2026-05-04 18:50 | 26.47004 | 49.79195 | 93 ft | 11 kts | 74° |
| 2026-05-04 18:51 | 26.47024 | 49.79276 | 91 ft | 11 kts | 76° |
| 2026-05-04 18:51 | 26.46990 | 49.79347 | 92 ft | 11 kts | 148° |
| 2026-05-04 18:51 | 26.46930 | 49.79383 | 95 ft | 9 kts | 142° |
| 2026-05-04 18:51 | 26.46933 | 49.79429 | 95 ft | 6 kts | 65° |
| 2026-05-04 18:52 | 26.46943 | 49.79452 | 93 ft | 2 kts | 65° |
| 2026-05-04 18:52 | 26.46946 | 49.79458 | 93 ft | 0 kts | 64° |